Time;durP1;ratioP1;P1;durP2;ratioP2;P2;SDS_P1;SDS_P2;PMS_P1;PMS_P2;Temp;Humidity;BMP_temperature;BMP_pressure;BME280_temperature;BME280_humidity;BME280_pressure;Samples;Min_cycle;Max_cycle;Signal;HPM_P1;HPM_P2
2022/06/15 00:02:51;;;;;;;0.20;0.20;;;16.10;70.10;;;14.81;54.18;100542.31;9807502;29;97591;-89
2022/06/15 00:07:54;;;;;;;0.40;0.20;;;16.00;68.50;;;14.80;54.56;100555.91;9794117;29;96622;-89
2022/06/15 00:12:59;;;;;;;0.15;0.10;;;16.00;69.30;;;14.80;55.00;100561.25;9808593;29;96629;-90
2022/06/15 00:18:02;;;;;;;0.45;0.20;;;16.00;69.20;;;14.70;54.50;100559.69;9809059;29;96606;-89
2022/06/15 00:23:05;;;;;;;0.40;0.28;;;16.00;68.90;;;14.61;54.77;100560.81;9807066;29;97951;-89
2022/06/15 00:28:08;;;;;;;0.30;0.30;;;15.90;69.40;;;14.57;54.91;100570.19;9803635;29;96827;-89
2022/06/15 00:33:12;;;;;;;0.20;0.20;;;15.80;69.90;;;14.46;56.57;100578.69;9823555;29;98228;-90
2022/06/15 00:38:15;;;;;;;0.40;0.20;;;15.80;71.30;;;14.40;57.30;100582.91;9783772;29;96850;-89
2022/06/15 00:43:57;;;;;;;0.28;0.28;;;15.70;72.20;;;14.24;58.25;100583.06;9809181;29;96758;-89
2022/06/15 00:49:13;;;;;;;0.10;0.10;;;15.60;73.90;;;14.06;59.49;100586.06;9803103;29;97447;-89
2022/06/15 00:54:18;;;;;;;0.90;0.20;;;15.40;75.80;;;13.91;60.75;100587.88;9816735;29;96591;-89
2022/06/15 00:59:35;;;;;;;0.63;0.30;;;15.20;76.90;;;13.72;61.60;100591.03;9798356;29;97652;-89
2022/06/15 01:04:56;;;;;;;0.10;0.10;;;15.00;78.20;;;13.52;63.02;100591.50;9812809;29;96784;-89
2022/06/15 01:10:10;;;;;;;0.00;0.00;;;14.90;77.30;;;13.46;63.54;100588.72;9795629;29;96684;-88
2022/06/15 01:15:40;;;;;;;0.27;0.20;;;14.80;78.30;;;13.42;63.73;100590.09;9810383;29;96643;-89
2022/06/15 01:21:17;;;;;;;0.20;0.20;;;14.70;80.60;;;13.21;63.94;100586.22;9814127;29;96554;-88
2022/06/15 01:26:32;;;;;;;0.30;0.20;;;14.50;80.60;;;13.08;63.69;100586.75;9802488;29;97179;-89
2022/06/15 01:31:54;;;;;;;0.20;0.10;;;14.40;79.70;;;13.10;63.17;100595.41;9819957;29;97306;-89
2022/06/15 01:37:34;;;;;;;0.40;0.40;;;14.30;78.60;;;13.16;62.80;100595.72;9797266;29;96764;-89
2022/06/15 01:43:04;;;;;;;1.37;0.57;;;14.40;78.30;;;13.19;62.92;100593.50;9804730;29;96941;-89
2022/06/15 01:48:11;;;;;;;0.20;0.10;;;14.40;79.70;;;13.14;63.01;100585.22;9794589;29;96852;-88
2022/06/15 01:53:16;;;;;;;0.40;0.27;;;14.40;80.10;;;13.09;62.91;100583.06;9805129;29;98629;-88
2022/06/15 01:58:27;;;;;;;0.10;0.10;;;14.30;80.00;;;13.07;62.78;100585.09;9818717;29;96734;-89
2022/06/15 02:04:06;;;;;;;0.40;0.23;;;14.30;79.40;;;13.09;62.62;100590.25;9793134;29;96647;-89
2022/06/15 02:09:35;;;;;;;0.10;0.10;;;14.30;79.40;;;13.13;62.60;100592.41;9792275;29;96904;-89
2022/06/15 02:14:46;;;;;;;0.20;0.20;;;14.40;79.10;;;13.11;62.20;100582.88;9821403;29;96607;-88
2022/06/15 02:19:54;;;;;;;2.63;0.80;;;14.40;78.50;;;13.05;62.10;100587.09;9788576;29;97913;-90
2022/06/15 02:25:03;;;;;;;0.13;0.13;;;14.40;78.80;;;13.03;62.37;100591.78;9803399;29;96641;-88
2022/06/15 02:30:20;;;;;;;0.33;0.20;;;14.20;79.80;;;13.01;62.67;100598.28;9804505;29;97020;-89
2022/06/15 02:35:23;;;;;;;0.30;0.30;;;14.20;80.10;;;12.98;62.62;100603.97;9802689;29;96609;-90
2022/06/15 02:40:26;;;;;;;0.10;0.10;;;14.20;80.00;;;12.98;62.84;100604.81;9806611;29;97370;-90
2022/06/15 02:45:35;;;;;;;0.00;0.00;;;14.10;80.40;;;12.94;62.78;100595.47;9799906;29;97959;-90
2022/06/15 02:50:47;;;;;;;0.30;0.20;;;14.10;80.20;;;12.94;62.54;100599.97;9804145;29;96599;-90
2022/06/15 02:55:52;;;;;;;0.30;0.20;;;14.10;79.90;;;12.94;62.52;100605.31;9786408;29;96708;-90
2022/06/15 03:00:57;;;;;;;0.00;0.00;;;14.10;80.00;;;12.97;62.94;100603.13;9813773;29;97724;-89
2022/06/15 03:06:00;;;;;;;0.03;0.03;;;14.10;80.30;;;13.03;63.28;100605.13;9808092;29;97031;-90
2022/06/15 03:11:04;;;;;;;0.20;0.20;;;14.20;80.40;;;13.03;63.47;100620.28;9797770;29;96653;-89
2022/06/15 03:16:06;;;;;;;0.00;0.00;;;14.30;80.90;;;12.88;63.45;100616.66;9812990;29;97764;-90
2022/06/15 03:21:10;;;;;;;0.20;0.10;;;14.10;81.50;;;12.71;64.08;100626.56;9798175;29;97288;-90
2022/06/15 03:26:13;;;;;;;0.30;0.23;;;14.00;82.10;;;12.66;64.69;100628.94;9793743;29;96753;-89
2022/06/15 03:31:16;;;;;;;1.50;0.37;;;13.90;83.00;;;12.65;65.05;100620.06;9811019;29;96956;-90
2022/06/15 03:36:20;;;;;;;0.30;0.30;;;13.90;84.00;;;12.66;65.73;100623.59;9813990;29;96581;-90
2022/06/15 03:41:23;;;;;;;0.30;0.30;;;13.90;84.60;;;12.73;66.10;100630.72;9784616;29;96680;-89
2022/06/15 03:46:26;;;;;;;0.10;0.10;;;14.00;84.80;;;12.83;66.80;100625.19;9783691;29;96880;-89
2022/06/15 03:51:30;;;;;;;0.37;0.20;;;14.00;86.20;;;12.92;66.74;100626.84;9813400;29;96767;-89
2022/06/15 03:56:47;;;;;;;0.23;0.10;;;14.10;85.60;;;12.99;65.87;100627.81;9791513;29;98100;-89
2022/06/15 04:01:50;;;;;;;0.87;0.30;;;14.10;85.20;;;13.06;65.66;100628.75;9816188;29;96880;-89
2022/06/15 04:06:53;;;;;;;0.67;0.40;;;14.20;84.70;;;13.13;65.84;100627.09;9812839;29;96576;-90
2022/06/15 04:11:59;;;;;;;0.30;0.30;;;14.40;85.20;;;13.22;65.71;100635.91;9811856;29;97100;-89
2022/06/15 04:17:04;;;;;;;0.20;0.20;;;14.40;85.10;;;13.30;65.99;100637.69;9793087;29;96784;-90
2022/06/15 04:22:07;;;;;;;0.00;0.00;;;14.50;85.60;;;13.39;65.90;100640.16;9797545;29;96730;-90
2022/06/15 04:27:14;;;;;;;0.30;0.27;;;14.60;85.90;;;13.52;66.01;100636.91;9821953;29;96738;-90
2022/06/15 04:32:17;;;;;;;0.30;0.30;;;14.70;85.80;;;13.67;65.98;100636.97;9831627;29;97299;-89
2022/06/15 04:37:20;;;;;;;0.40;0.40;;;14.80;85.90;;;13.85;66.50;100639.34;9799819;29;96924;-90
2022/06/15 04:42:23;;;;;;;0.17;0.17;;;15.00;87.50;;;14.04;66.42;100646.91;9819810;29;96778;-90
2022/06/15 04:47:26;;;;;;;0.57;0.30;;;15.20;86.90;;;14.20;66.03;100638.72;9806500;29;98292;-90
2022/06/15 04:52:29;;;;;;;0.25;0.20;;;15.40;87.10;;;14.32;66.11;100638.28;9830817;29;96749;-90
2022/06/15 04:57:37;;;;;;;0.17;0.17;;;15.40;87.70;;;14.44;65.88;100642.19;9800538;29;96700;-89
2022/06/15 05:02:40;;;;;;;0.20;0.20;;;15.50;87.80;;;14.59;66.03;100636.91;9812927;29;96889;-90
2022/06/15 05:07:45;;;;;;;0.35;0.20;;;15.70;87.30;;;14.80;65.54;100631.63;9808070;29;96793;-90
2022/06/15 05:12:49;;;;;;;0.65;0.20;;;15.90;87.30;;;15.01;65.59;100641.59;9801158;29;98161;-90
2022/06/15 05:17:52;;;;;;;1.23;0.52;;;16.10;87.80;;;15.20;65.37;100637.50;9817813;29;97308;-89
2022/06/15 05:22:55;;;;;;;0.65;0.40;;;16.30;87.40;;;15.43;65.48;100640.88;9823098;29;96627;-90
2022/06/15 05:27:59;;;;;;;0.20;0.20;;;16.50;88.10;;;15.67;65.30;100634.38;9806075;29;96872;-89
2022/06/15 05:33:02;;;;;;;0.30;0.20;;;16.70;88.00;;;15.92;64.66;100632.13;9796792;29;96896;-89
2022/06/15 05:38:06;;;;;;;0.47;0.22;;;16.90;87.50;;;16.16;64.33;100632.75;9811833;29;96667;-90
2022/06/15 05:43:09;;;;;;;0.50;0.25;;;17.20;86.80;;;16.43;63.91;100633.78;9814028;29;96852;-89
2022/06/15 05:48:12;;;;;;;0.40;0.22;;;17.40;86.30;;;16.69;63.19;100639.34;9794396;29;96845;-90
2022/06/15 05:53:15;;;;;;;0.30;0.20;;;17.70;85.50;;;16.93;62.96;100640.75;9821653;29;96775;-88
2022/06/15 05:58:18;;;;;;;0.50;0.22;;;18.00;85.00;;;17.19;62.59;100636.53;9825267;29;96627;-91
2022/06/15 06:03:20;;;;;;;0.55;0.30;;;18.20;84.90;;;17.45;62.51;100644.66;9800414;29;96846;-90
2022/06/15 06:08:24;;;;;;;1.00;0.65;;;18.50;85.10;;;17.68;61.54;100644.31;9822262;29;98291;-90
2022/06/15 06:13:27;;;;;;;0.28;0.20;;;18.70;84.60;;;17.90;59.57;100639.66;9805035;29;96744;-90
2022/06/15 06:18:30;;;;;;;0.15;0.13;;;18.90;79.60;;;18.07;58.79;100642.78;9818384;29;96692;-90
2022/06/15 06:23:35;;;;;;;0.50;0.35;;;19.10;80.90;;;18.17;57.77;100651.22;9823642;29;96887;-91
2022/06/15 06:28:39;;;;;;;0.20;0.10;;;19.20;80.00;;;18.31;55.58;100658.28;9809772;29;96653;-91
2022/06/15 06:33:42;;;;;;;1.38;0.20;;;19.40;76.90;;;18.49;53.40;100652.28;9807844;29;96634;-90
2022/06/15 06:38:46;;;;;;;0.17;0.17;;;19.60;71.60;;;18.65;51.06;100653.69;9816983;29;96478;-91
2022/06/15 06:43:49;;;;;;;0.20;0.20;;;19.70;73.30;;;18.80;49.22;100654.31;9786553;29;96792;-90
2022/06/15 06:48:52;;;;;;;0.45;0.30;;;19.90;68.90;;;18.99;47.37;100648.06;9801479;29;96655;-92
2022/06/15 06:53:55;;;;;;;0.77;0.32;;;20.10;69.90;;;19.17;47.36;100643.84;9787065;29;96536;-92
2022/06/15 06:58:59;;;;;;;0.30;0.30;;;20.30;69.10;;;19.33;48.05;100643.38;9787178;29;96606;-91
2022/06/15 07:04:02;;;;;;;0.13;0.13;;;20.40;68.70;;;19.53;47.01;100644.09;9788290;29;96904;-91
2022/06/15 07:09:06;;;;;;;1.10;0.38;;;20.60;68.30;;;19.78;46.60;100651.44;9812836;29;96483;-92
2022/06/15 07:14:09;;;;;;;0.75;0.40;;;20.80;67.10;;;19.95;46.16;100649.88;9813278;29;96702;-91
2022/06/15 07:19:15;;;;;;;0.28;0.28;;;21.00;66.40;;;20.09;45.37;100647.06;9794638;29;96673;-90
2022/06/15 07:24:18;;;;;;;0.30;0.20;;;21.20;65.70;;;20.23;45.86;100648.63;9792152;29;96496;-90
2022/06/15 07:29:22;;;;;;;0.10;0.10;;;21.30;66.10;;;20.37;46.03;100649.34;9810187;29;96648;-91
2022/06/15 07:34:25;;;;;;;0.20;0.17;;;21.50;65.60;;;20.55;45.01;100647.53;9787582;29;96665;-91
2022/06/15 07:39:28;;;;;;;0.10;0.10;;;21.60;63.90;;;20.73;44.95;100646.72;9810559;29;96803;-91
2022/06/15 07:44:38;;;;;;;0.30;0.30;;;21.80;64.50;;;20.89;44.80;100637.22;9815945;29;96532;-90
2022/06/15 07:49:54;;;;;;;1.02;0.20;;;22.00;64.20;;;21.02;43.91;100634.38;9826260;29;96580;-91
2022/06/15 07:55:27;;;;;;;0.20;0.20;;;22.20;62.60;;;21.15;43.76;100624.44;9816943;29;96535;-90
2022/06/15 08:00:31;;;;;;;0.38;0.20;;;22.30;62.90;;;21.29;43.71;100625.94;9811327;29;96743;-91
2022/06/15 08:05:40;;;;;;;0.30;0.15;;;22.40;62.50;;;21.44;43.36;100630.97;9826581;29;96672;-90
2022/06/15 08:10:42;;;;;;;0.77;0.32;;;22.50;62.40;;;21.49;42.18;100614.88;9828008;29;96753;-91
2022/06/15 08:15:50;;;;;;;0.45;0.30;;;22.60;60.30;;;21.58;43.12;100625.13;9800950;29;96779;-93
2022/06/15 08:21:09;;;;;;;0.30;0.28;;;22.70;61.50;;;21.68;42.03;100621.06;9800897;29;96674;-91
2022/06/15 08:26:18;;;;;;;0.40;0.40;;;22.80;60.30;;;21.81;41.70;100621.69;9817282;29;96916;-91
2022/06/15 08:31:22;;;;;;;0.30;0.30;;;22.90;59.80;;;21.92;40.27;100620.06;9810544;29;96742;-91
2022/06/15 08:36:25;;;;;;;0.22;0.20;;;23.00;59.10;;;22.07;40.34;100615.03;9819928;29;97011;-91
2022/06/15 08:42:00;;;;;;;0.10;0.10;;;23.20;59.00;;;22.23;40.34;100615.44;9785830;29;97807;-91
2022/06/15 08:47:28;;;;;;;0.55;0.20;;;23.30;58.50;;;22.35;39.53;100608.13;9778111;29;96621;-91
2022/06/15 08:53:00;;;;;;;0.20;0.20;;;23.40;56.20;;;22.44;39.92;100602.13;9819960;29;97737;-91
2022/06/15 08:58:20;;;;;;;1.10;0.30;;;23.50;57.70;;;22.55;39.08;100602.34;9814919;29;96765;-91
2022/06/15 09:03:40;;;;;;;0.20;0.20;;;23.60;57.00;;;22.60;37.45;100608.69;9809682;29;96615;-91
2022/06/15 09:09:23;;;;;;;0.38;0.30;;;23.70;54.80;;;22.84;38.21;100605.97;9812955;29;96708;-92
2022/06/15 09:14:51;;;;;;;0.47;0.22;;;23.90;53.90;;;22.89;36.36;100598.78;9820844;29;96583;-90
2022/06/15 09:20:08;;;;;;;0.50;0.30;;;23.90;51.50;;;22.88;37.17;100589.03;9787339;29;96744;-91
2022/06/15 09:25:24;;;;;;;0.20;0.20;;;23.90;53.70;;;23.08;37.79;100579.66;9790933;29;97659;-91
2022/06/15 09:30:36;;;;;;;0.20;0.20;;;24.10;54.50;;;23.18;37.17;100585.28;9809634;29;96632;-91
2022/06/15 09:35:51;;;;;;;0.15;0.13;;;24.20;54.00;;;23.23;36.34;100579.97;9803180;29;96886;-91
2022/06/15 09:41:22;;;;;;;0.60;0.30;;;24.30;53.90;;;23.45;37.25;100575.50;9835385;29;96518;-91
2022/06/15 09:47:06;;;;;;;0.32;0.22;;;24.50;54.80;;;23.68;37.02;100566.41;9809325;29;96813;-92
2022/06/15 09:52:49;;;;;;;0.47;0.22;;;24.70;54.50;;;24.02;37.74;100578.13;9827514;29;96840;-92
2022/06/15 09:57:54;;;;;;;4.45;0.70;;;25.00;54.50;;;24.15;35.61;100562.56;9823149;29;96747;-92
2022/06/15 10:03:03;;;;;;;0.75;0.40;;;25.20;51.50;;;24.19;35.23;100564.53;9804920;29;96573;-91
2022/06/15 10:08:11;;;;;;;;;;;25.30;52.30;;;24.43;35.55;100550.78;9832133;29;96441;-93
2022/06/15 10:13:21;;;;;;;0.47;0.22;;;25.50;52.50;;;24.58;35.70;100542.81;9810090;29;96672;-91
2022/06/15 10:18:44;;;;;;;0.35;0.22;;;25.70;52.80;;;24.77;34.45;100537.88;9822581;29;96574;-91
2022/06/15 10:24:19;;;;;;;1.25;0.32;;;25.90;52.00;;;24.98;35.82;100538.97;9811481;29;96624;-91
2022/06/15 10:29:31;;;;;;;0.22;0.20;;;26.10;52.80;;;25.11;34.62;100527.72;9823308;29;96965;-91
2022/06/15 10:34:47;;;;;;;0.10;0.10;;;26.30;51.90;;;25.26;33.83;100530.59;9809134;29;96699;-91
2022/06/15 10:39:54;;;;;;;1.98;0.30;;;26.40;51.30;;;25.31;32.50;100533.38;9805479;29;97190;-93
2022/06/15 10:45:06;;;;;;;0.70;0.28;;;26.60;49.70;;;25.29;32.72;100523.81;9787208;29;96399;-92
2022/06/15 10:50:32;;;;;;;0.30;0.20;;;26.60;49.90;;;25.34;32.98;100519.25;9817481;29;96728;-91
2022/06/15 11:06:59;;;;;;;0.30;0.20;;;26.80;49.70;;;25.73;32.22;100504.59;9798990;29;96505;-92
2022/06/15 11:12:25;;;;;;;0.85;0.40;;;27.00;49.10;;;25.82;31.75;100500.34;9772230;29;96642;-94
2022/06/15 11:23:21;;;;;;;0.20;0.10;;;27.00;48.10;;;25.43;32.24;100497.00;9823543;29;96538;-94
2022/06/15 11:28:35;;;;;;;0.50;0.20;;;26.80;48.00;;;25.42;32.55;100489.94;9810209;29;96662;-92
2022/06/15 11:33:58;;;;;;;0.30;0.20;;;26.70;48.40;;;25.66;33.24;100480.31;9819854;29;96623;-91
2022/06/15 11:39:22;;;;;;;0.20;0.20;;;26.90;49.10;;;26.09;34.09;100478.50;9786776;29;96774;-92
2022/06/15 11:44:35;;;;;;;0.68;0.25;;;27.20;50.40;;;26.38;32.13;100471.53;9786156;29;96673;-92
2022/06/15 11:50:23;;;;;;;0.38;0.30;;;27.50;48.80;;;26.52;33.04;100468.38;9793017;29;96839;-92
2022/06/15 11:55:37;;;;;;;1.10;0.20;;;27.60;49.20;;;26.86;32.14;100458.63;9791876;29;96658;-92
2022/06/15 12:00:56;;;;;;;0.38;0.30;;;28.00;48.60;;;27.16;32.33;100467.97;9791229;29;96615;-91
2022/06/15 12:06:24;;;;;;;0.68;0.28;;;28.30;48.10;;;27.42;31.14;100453.28;9815812;29;98446;-92
2022/06/15 12:17:42;;;;;;;0.28;0.15;;;28.70;45.50;;;27.91;30.40;100458.16;9825784;29;96611;-92
2022/06/15 12:22:56;;;;;;;0.10;0.10;;;29.00;47.80;;;27.92;28.55;100443.41;9828085;29;96615;-93
2022/06/15 12:28:41;;;;;;;0.20;0.20;;;29.10;45.90;;;27.95;29.59;100447.50;9812287;29;97007;-91
2022/06/15 12:34:01;;;;;;;0.50;0.30;;;29.30;46.40;;;27.93;29.08;100434.09;9821626;29;98346;-92
2022/06/15 12:39:29;;;;;;;0.30;0.20;;;29.50;45.80;;;27.71;29.62;100428.16;9826701;29;97270;-92
2022/06/15 12:45:13;;;;;;;0.40;0.30;;;29.50;45.10;;;27.85;30.00;100418.28;9827459;29;96611;-92
2022/06/15 12:50:37;;;;;;;0.95;0.70;;;29.80;45.10;;;27.90;30.54;100429.22;9823407;29;96708;-93
2022/06/15 12:56:01;;;;;;;0.38;0.15;;;29.80;45.60;;;27.96;27.98;100430.84;9811459;29;96509;-93
2022/06/15 13:01:31;;;;;;;0.28;0.25;;;29.80;44.00;;;27.91;30.37;100427.28;9827658;29;96461;-92
2022/06/15 13:06:40;;;;;;;0.28;0.10;;;29.60;45.50;;;28.18;29.81;100424.19;9798144;29;96840;-92
2022/06/15 13:12:07;;;;;;;0.20;0.20;;;29.70;45.90;;;28.26;28.32;100415.44;9784779;29;96659;-92
2022/06/15 13:17:20;;;;;;;0.43;0.20;;;29.60;44.80;;;28.43;29.50;100415.09;9797985;29;96814;-92
2022/06/15 13:22:32;;;;;;;0.30;0.13;;;29.50;45.40;;;28.64;28.13;100410.34;9805415;29;96674;-92
2022/06/15 13:27:40;;;;;;;0.20;0.20;;;29.60;42.90;;;28.51;27.46;100419.97;9825763;29;97019;-91
2022/06/15 13:33:11;;;;;;;0.10;0.10;;;29.40;43.20;;;28.57;26.52;100409.84;9824929;29;97025;-92
2022/06/15 13:38:20;;;;;;;0.32;0.30;;;29.40;42.80;;;28.40;26.39;100411.00;9789468;29;96691;-92
2022/06/15 13:43:55;;;;;;;0.30;0.20;;;29.20;41.30;;;28.46;26.48;100403.59;9824371;29;96866;-92
2022/06/15 13:49:24;;;;;;;0.30;0.00;;;29.20;42.60;;;28.53;28.27;100404.09;9806302;29;96957;-91
2022/06/15 13:55:14;;;;;;;0.20;0.20;;;29.30;43.40;;;28.78;28.47;100398.47;9789507;29;96569;-92
2022/06/15 14:00:57;;;;;;;0.63;0.30;;;29.50;44.80;;;28.97;28.34;100395.94;9776695;29;96708;-91
2022/06/15 14:06:30;;;;;;;0.00;0.00;;;29.80;44.30;;;29.07;29.01;100386.81;9821475;29;96714;-91
2022/06/15 14:12:18;;;;;;;0.10;0.10;;;29.90;46.10;;;29.26;28.07;100387.72;9826027;29;96511;-91
2022/06/15 14:17:45;;;;;;;1.88;0.35;;;30.10;44.80;;;29.25;26.89;100385.28;9819165;29;96781;-91
2022/06/15 14:22:55;;;;;;;0.40;0.30;;;30.10;42.70;;;29.28;27.38;100382.00;9816420;29;96769;-92
2022/06/15 14:28:26;;;;;;;0.08;0.08;;;30.10;44.10;;;29.26;25.72;100384.19;9797085;29;96782;-91
2022/06/15 14:33:30;;;;;;;0.00;0.00;;;30.10;41.70;;;28.95;24.47;100373.50;9800930;29;96806;-89
2022/06/15 14:38:33;;;;;;;0.30;0.10;;;29.90;40.10;;;28.95;24.20;100376.22;9810953;29;96829;-82
2022/06/15 14:43:37;;;;;;;0.10;0.10;;;29.80;39.40;;;28.95;25.07;100376.22;9801239;29;97728;-83
2022/06/15 14:48:48;;;;;;;0.17;0.10;;;29.70;40.40;;;29.16;26.15;100370.59;9796799;29;96845;-84
2022/06/15 14:54:14;;;;;;;0.00;0.00;;;29.80;42.30;;;29.24;24.74;100369.97;9798718;29;97238;-83
2022/06/15 14:59:43;;;;;;;0.00;0.00;;;30.00;40.70;;;29.23;24.42;100366.41;9808251;29;96958;-83
2022/06/15 15:04:52;;;;;;;0.47;0.07;;;29.90;40.00;;;29.09;23.38;100360.00;9822236;29;96920;-83
2022/06/15 15:09:55;;;;;;;0.00;0.00;;;29.80;38.80;;;29.01;23.89;100352.38;9801435;29;98248;-83
2022/06/15 15:15:02;;;;;;;0.00;0.00;;;29.70;38.50;;;29.04;24.09;100351.81;9859523;29;96758;-83
2022/06/15 15:20:38;;;;;;;0.10;0.03;;;29.70;38.50;;;28.93;23.07;100356.56;9835055;29;96780;-83
2022/06/15 15:25:51;;;;;;;0.03;0.03;;;29.60;38.50;;;28.90;23.92;100351.63;9817499;29;96871;-84
2022/06/15 15:42:28;;;;;;;0.17;0.10;;;29.70;39.40;;;28.78;23.20;100338.31;9834788;29;96465;-83
2022/06/15 15:47:32;;;;;;;0.20;0.10;;;29.60;37.60;;;28.70;23.86;100340.84;9822232;29;97111;-84
2022/06/15 15:52:37;;;;;;;0.10;0.10;;;29.40;39.60;;;28.75;24.72;100343.53;9814657;29;97255;-83
2022/06/15 15:57:44;;;;;;;0.05;0.00;;;29.40;40.00;;;28.82;24.56;100333.09;9807481;29;96791;-83
2022/06/15 16:02:52;;;;;;;0.30;0.20;;;29.40;39.30;;;28.85;25.63;100331.69;9815755;29;97355;-85
2022/06/15 16:07:56;;;;;;;0.10;0.10;;;29.50;41.50;;;28.89;24.32;100328.09;9814864;29;96898;-84
2022/06/15 16:13:06;;;;;;;;;;;29.60;39.80;;;28.79;24.56;100330.94;9828547;29;96626;-85
2022/06/15 16:18:13;;;;;;;0.10;0.10;;;29.50;40.40;;;28.75;25.29;100321.66;9814633;29;97156;-83
2022/06/15 16:23:20;;;;;;;0.03;0.00;;;29.50;40.80;;;28.54;25.22;100324.53;9814931;29;98297;-83
2022/06/15 16:28:26;;;;;;;0.00;0.00;;;29.20;40.00;;;28.44;25.50;100315.63;9804892;29;98243;-83
2022/06/15 16:33:29;;;;;;;0.43;0.10;;;29.10;41.20;;;28.43;25.44;100314.81;9803971;29;97163;-83
2022/06/15 16:38:32;;;;;;;0.00;0.00;;;29.20;41.50;;;28.44;26.38;100308.22;9802778;29;96710;-83
2022/06/15 16:43:53;;;;;;;0.00;0.00;;;29.30;41.80;;;28.34;26.54;100311.03;9817284;29;97330;-84
2022/06/15 16:48:58;;;;;;;0.20;0.10;;;29.30;41.60;;;28.25;25.94;100318.16;9795397;29;98320;-83
2022/06/15 16:54:06;;;;;;;0.20;0.10;;;29.30;41.30;;;28.16;27.34;100308.91;9801716;29;96775;-83
2022/06/15 16:59:33;;;;;;;0.10;0.00;;;29.30;42.80;;;28.11;27.37;100308.94;9800816;29;96531;-83
2022/06/15 17:04:39;;;;;;;0.20;0.10;;;29.20;42.10;;;28.08;27.53;100307.59;9816517;29;97353;-84
2022/06/15 17:09:43;;;;;;;0.20;0.20;;;29.20;42.60;;;27.85;27.83;100302.78;9811233;29;97474;-81
2022/06/15 17:14:46;;;;;;;0.03;0.03;;;28.90;43.00;;;27.64;27.65;100304.75;9804625;29;97155;-83
2022/06/15 17:19:52;;;;;;;0.10;0.05;;;28.70;42.40;;;27.46;28.44;100300.69;9805796;29;96710;-93
2022/06/15 17:24:56;;;;;;;0.20;0.10;;;28.40;42.80;;;27.25;28.82;100294.50;9840770;29;96885;-92
2022/06/15 17:29:59;;;;;;;0.10;0.10;;;28.20;43.60;;;27.01;29.01;100293.41;9802344;29;96698;-93
2022/06/15 17:35:04;;;;;;;0.10;0.10;;;28.00;44.20;;;26.78;29.92;100295.59;9802761;29;96820;-92
2022/06/15 17:40:08;;;;;;;0.00;0.00;;;27.80;44.90;;;26.50;30.56;100298.84;9800710;29;96626;-93
2022/06/15 17:45:11;;;;;;;0.30;0.20;;;27.50;45.20;;;26.14;30.52;100306.91;9804394;29;96789;-93
2022/06/15 17:50:15;;;;;;;1.42;0.30;;;27.10;45.30;;;25.80;31.66;100307.34;9800394;29;96709;-91
2022/06/15 17:55:18;;;;;;;0.40;0.17;;;26.80;46.50;;;25.41;32.06;100312.28;9828993;29;97282;-94
2022/06/15 18:00:22;;;;;;;0.10;0.10;;;26.50;46.50;;;25.05;32.56;100313.94;9788009;29;97330;-93
2022/06/15 18:05:25;;;;;;;0.85;0.22;;;26.20;46.90;;;24.71;34.34;100314.22;9790069;29;96622;-92
2022/06/15 18:10:31;;;;;;;0.10;0.10;;;25.80;48.70;;;24.40;35.76;100323.13;9808673;29;99052;-95
2022/06/15 18:15:35;;;;;;;0.20;0.10;;;25.50;49.70;;;24.12;36.12;100318.72;9814297;29;97605;-96
2022/06/15 18:20:40;;;;;;;0.10;0.10;;;25.30;50.30;;;23.82;36.83;100325.44;9803618;29;96579;-96
2022/06/15 18:25:43;;;;;;;0.55;0.22;;;24.90;50.80;;;23.53;37.10;100324.75;9805185;29;96684;-86
2022/06/15 18:30:48;;;;;;;1.35;0.28;;;24.60;51.30;;;23.18;37.73;100323.16;9816694;29;96728;-95
2022/06/15 18:35:55;;;;;;;0.10;0.10;;;24.30;51.60;;;22.89;38.19;100327.81;9812786;29;96709;-94
2022/06/15 18:40:59;;;;;;;0.10;0.10;;;24.00;52.50;;;22.62;39.05;100335.75;9807793;29;98698;-93
2022/06/15 18:51:25;;;;;;;0.10;0.10;;;23.40;53.80;;;22.12;40.25;100332.88;9817012;29;97074;-90
2022/06/15 18:56:33;;;;;;;0.40;0.20;;;23.20;54.10;;;21.90;40.83;100330.00;9845538;29;96458;-91
2022/06/15 19:01:40;;;;;;;0.10;0.10;;;23.00;54.60;;;21.72;41.40;100346.38;9795272;29;96746;-93
2022/06/15 19:06:44;;;;;;;0.20;0.20;;;22.80;55.50;;;21.49;41.65;100355.34;9783487;29;98142;-94
2022/06/15 19:11:48;;;;;;;0.25;0.17;;;22.60;55.30;;;21.29;41.78;100358.38;9822522;29;97919;-93
2022/06/15 19:16:51;;;;;;;0.63;0.30;;;22.40;55.30;;;21.09;42.69;100362.19;9806791;29;97328;-93
2022/06/15 19:22:04;;;;;;;0.30;0.20;;;22.20;56.10;;;20.95;43.25;100371.59;9821556;29;96614;-94
2022/06/15 19:27:21;;;;;;;1.90;0.50;;;22.10;57.00;;;20.79;43.98;100374.94;9803766;29;96693;-92
2022/06/15 19:32:34;;;;;;;1.35;0.30;;;21.90;57.10;;;20.63;44.59;100383.69;9779458;29;96622;-93
2022/06/15 19:37:39;;;;;;;0.10;0.10;;;21.80;57.90;;;20.43;44.84;100386.63;9809148;29;96639;-95
2022/06/15 19:42:43;;;;;;;0.20;0.20;;;21.60;57.60;;;20.27;45.50;100391.63;9806479;29;96767;-94
2022/06/15 19:47:46;;;;;;;0.43;0.28;;;21.40;58.60;;;20.11;45.09;100391.41;9822027;29;96736;-94
2022/06/15 19:52:50;;;;;;;0.25;0.20;;;21.30;58.20;;;19.97;45.30;100386.16;9793066;29;96483;-93
2022/06/15 19:57:53;;;;;;;0.20;0.20;;;21.20;57.90;;;19.85;45.13;100396.06;9815696;29;96969;-93
2022/06/15 20:02:56;;;;;;;0.35;0.30;;;21.10;58.00;;;19.73;45.65;100397.81;9811242;29;97396;-93
2022/06/15 20:08:01;;;;;;;0.60;0.20;;;20.90;58.50;;;19.65;45.98;100398.09;9817165;29;96620;-93
2022/06/15 20:13:04;;;;;;;0.77;0.40;;;20.90;59.00;;;19.56;45.89;100402.94;9838131;29;96611;-92
2022/06/15 20:18:12;;;;;;;0.30;0.28;;;20.80;58.80;;;19.45;46.21;100398.28;9824354;29;97185;-91
2022/06/15 20:23:20;;;;;;;0.30;0.20;;;20.60;59.70;;;19.34;46.32;100397.13;9813774;29;96728;-92
2022/06/15 20:28:33;;;;;;;0.30;0.20;;;20.50;59.30;;;19.24;46.23;100402.16;9799481;29;96901;-91
2022/06/15 20:33:37;;;;;;;0.20;0.10;;;20.30;59.10;;;19.15;47.81;100404.31;9821902;29;98326;-91
2022/06/15 20:38:40;;;;;;;0.40;0.20;;;20.30;60.80;;;19.02;48.72;100414.38;9793572;29;97113;-92
2022/06/15 20:43:50;;;;;;;0.93;0.52;;;20.20;62.60;;;18.68;49.73;100405.66;9818581;29;96727;-91
2022/06/15 20:48:57;;;;;;;0.13;0.10;;;19.90;63.80;;;18.46;50.12;100415.88;9806410;29;97313;-92
2022/06/15 20:54:03;;;;;;;0.15;0.15;;;19.60;63.20;;;18.34;50.63;100414.91;9794170;29;97408;-92
2022/06/15 20:59:05;;;;;;;0.30;0.20;;;19.40;64.00;;;18.16;50.84;100412.91;9837873;29;96933;-91
2022/06/15 21:04:09;;;;;;;0.30;0.20;;;19.20;64.70;;;18.04;51.87;100420.78;9811550;29;96745;-92
2022/06/15 21:09:18;;;;;;;1.00;0.65;;;19.20;64.20;;;18.02;51.28;100422.06;9836412;29;96812;-92
2022/06/15 21:19:43;;;;;;;0.38;0.38;;;19.00;66.10;;;17.81;51.91;100418.59;9820159;29;98203;-89
2022/06/15 21:24:49;;;;;;;0.35;0.10;;;18.90;65.20;;;17.69;51.68;100425.59;9807960;29;96688;-91
2022/06/15 21:29:52;;;;;;;0.40;0.25;;;18.80;64.70;;;17.61;51.38;100415.06;9806178;29;96931;-90
2022/06/15 21:34:55;;;;;;;0.30;0.20;;;18.70;64.70;;;17.56;51.79;100417.53;9815691;29;97455;-91
2022/06/15 21:40:00;;;;;;;0.08;0.03;;;18.60;65.20;;;17.50;52.30;100423.75;9836222;29;98452;-91
2022/06/15 21:45:14;;;;;;;0.20;0.20;;;18.60;65.90;;;17.38;52.75;100418.19;9816050;29;96867;-90
2022/06/15 21:50:18;;;;;;;0.20;0.20;;;18.50;66.90;;;17.24;53.17;100422.72;9821292;29;96597;-91
2022/06/15 21:55:21;;;;;;;0.13;0.08;;;18.30;66.70;;;17.15;53.71;100420.44;9803988;29;98123;-91
2022/06/15 22:00:26;;;;;;;0.25;0.20;;;18.20;67.60;;;17.07;54.03;100427.66;9789594;29;96726;-89
2022/06/15 22:05:30;;;;;;;0.22;0.20;;;18.10;68.00;;;16.98;53.74;100420.84;9803210;29;96606;-89
2022/06/15 22:10:33;;;;;;;0.52;0.43;;;18.00;67.60;;;16.93;53.90;100425.19;9806256;29;98463;-90
2022/06/15 22:15:36;;;;;;;0.20;0.13;;;17.90;67.80;;;16.92;53.69;100427.03;9783303;29;96760;-89
2022/06/15 22:20:39;;;;;;;0.10;0.05;;;17.90;67.30;;;16.94;53.62;100427.66;9818179;29;96571;-91